Time;durP1;ratioP1;P1;durP2;ratioP2;P2;SDS_P1;SDS_P2;PMS_P1;PMS_P2;Temp;Humidity;BMP_temperature;BMP_pressure;BME280_temperature;BME280_humidity;BME280_pressure;Samples;Min_cycle;Max_cycle;Signal;HPM_P1;HPM_P2
2022/03/05 00:00:48;;;;;;;32.50;13.70;;;3.00;99.90;;;;;;5049007;28;20132;-90
2022/03/05 00:03:14;;;;;;;39.00;15.10;;;3.00;99.90;;;;;;5044541;28;20446;-88
2022/03/05 00:05:41;;;;;;;38.03;15.45;;;3.00;99.90;;;;;;5044150;28;20037;-88
2022/03/05 00:08:07;;;;;;;38.58;15.20;;;3.00;99.90;;;;;;5043253;28;20045;-86
2022/03/05 00:10:34;;;;;;;33.95;15.13;;;3.00;99.90;;;;;;5045486;28;20049;-88
2022/03/05 00:13:00;;;;;;;38.67;15.25;;;2.90;99.90;;;;;;5052051;28;20504;-89
2022/03/05 00:15:28;;;;;;;37.47;15.65;;;3.00;99.90;;;;;;5042954;28;20249;-90
2022/03/05 00:17:55;;;;;;;32.55;15.18;;;3.00;99.90;;;;;;5055517;28;20048;-89
2022/03/05 00:20:24;;;;;;;39.63;15.75;;;2.90;99.90;;;;;;5037863;28;20040;-88
2022/03/05 00:22:53;;;;;;;40.08;15.73;;;2.90;99.90;;;;;;5059985;28;20017;-88
2022/03/05 00:25:20;;;;;;;37.65;15.82;;;2.90;99.90;;;;;;5043376;28;20009;-87
2022/03/05 00:27:47;;;;;;;44.15;16.00;;;2.90;99.90;;;;;;5059519;28;20025;-88
2022/03/05 00:30:13;;;;;;;40.08;16.92;;;2.90;99.90;;;;;;5052005;28;20049;-88
2022/03/05 00:32:39;;;;;;;36.97;15.05;;;3.00;99.90;;;;;;5045014;28;20044;-89
2022/03/05 00:35:07;;;;;;;35.38;15.30;;;3.00;99.90;;;;;;5025585;28;20029;-87
2022/03/05 00:37:34;;;;;;;36.88;15.38;;;3.00;99.90;;;;;;5025629;28;20037;-87
2022/03/05 00:40:00;;;;;;;40.05;15.68;;;3.00;99.90;;;;;;5043637;28;20026;-89
2022/03/05 00:42:26;;;;;;;37.97;15.73;;;3.00;99.90;;;;;;5042930;28;20032;-87
2022/03/05 00:44:52;;;;;;;38.63;15.40;;;3.00;99.90;;;;;;5043705;28;20477;-86
2022/03/05 00:47:18;;;;;;;46.05;15.93;;;3.00;99.90;;;;;;5047596;28;20025;-87
2022/03/05 00:49:44;;;;;;;40.75;16.52;;;3.10;99.90;;;;;;5051844;28;20072;-85
2022/03/05 00:52:09;;;;;;;42.10;16.23;;;3.10;99.90;;;;;;5055355;28;20069;-87
2022/03/05 00:54:35;;;;;;;36.47;15.63;;;3.10;99.90;;;;;;5046560;28;20028;-87
2022/03/05 00:57:02;;;;;;;37.45;14.60;;;3.10;99.90;;;;;;5045614;28;20116;-87
2022/03/05 00:59:28;;;;;;;41.30;17.10;;;3.10;99.90;;;;;;5044236;28;20060;-88
2022/03/05 01:01:55;;;;;;;41.42;15.50;;;3.10;99.90;;;;;;5043037;28;20044;-88
2022/03/05 01:04:20;;;;;;;41.60;16.20;;;3.10;99.90;;;;;;5031104;28;20013;-84
2022/03/05 01:06:46;;;;;;;35.88;15.98;;;3.10;99.90;;;;;;5108805;23;20058;-87
2022/03/05 01:09:12;;;;;;;44.33;16.38;;;3.10;99.90;;;;;;5123034;28;20049;-87
2022/03/05 01:11:39;;;;;;;41.63;16.63;;;3.10;99.90;;;;;;5127913;28;20024;-89
2022/03/05 01:14:07;;;;;;;41.67;17.83;;;3.00;99.90;;;;;;5129585;28;20022;-86
2022/03/05 01:16:34;;;;;;;42.40;17.50;;;3.00;99.90;;;;;;5123585;28;20056;-86
2022/03/05 01:19:00;;;;;;;47.88;17.42;;;3.00;99.90;;;;;;5106718;28;20031;-88
2022/03/05 01:21:27;;;;;;;40.80;16.08;;;3.00;99.90;;;;;;5132094;28;20042;-86
2022/03/05 01:23:53;;;;;;;41.53;16.23;;;3.00;99.90;;;;;;5096521;28;20042;-86
2022/03/05 01:26:19;;;;;;;42.53;16.77;;;3.00;99.90;;;;;;5132461;28;20020;-85
2022/03/05 01:28:45;;;;;;;42.85;16.92;;;3.00;99.90;;;;;;5133810;28;20094;-84
2022/03/05 01:31:11;;;;;;;40.28;15.60;;;3.10;99.90;;;;;;5136671;28;20096;-87
2022/03/05 01:33:37;;;;;;;44.13;17.13;;;3.00;99.90;;;;;;5112004;28;20020;-87
2022/03/05 01:36:04;;;;;;;43.00;16.63;;;3.10;99.90;;;;;;5133736;28;20028;-86
2022/03/05 01:38:29;;;;;;;41.47;16.42;;;3.00;99.90;;;;;;5134437;28;20502;-85
2022/03/05 01:40:55;;;;;;;42.55;16.13;;;3.00;99.90;;;;;;5131168;28;20031;-85
2022/03/05 01:43:21;;;;;;;40.20;17.45;;;3.00;99.90;;;;;;5109990;28;20007;-86
2022/03/05 01:45:47;;;;;;;41.72;17.05;;;3.00;99.90;;;;;;5115003;28;20028;-87
2022/03/05 01:48:13;;;;;;;41.83;16.05;;;3.00;99.90;;;;;;5117214;28;20032;-86
2022/03/05 01:50:39;;;;;;;45.35;17.75;;;3.00;99.90;;;;;;5117441;28;20024;-85
2022/03/05 01:53:06;;;;;;;47.90;17.70;;;3.00;99.90;;;;;;5114162;28;20035;-85
2022/03/05 01:55:32;;;;;;;44.45;17.40;;;3.10;99.90;;;;;;5131848;28;20053;-86
2022/03/05 01:57:58;;;;;;;44.35;17.15;;;3.10;99.90;;;;;;5128944;28;20047;-87
2022/03/05 02:00:24;;;;;;;40.78;16.83;;;3.00;99.90;;;;;;5104879;28;20028;-86
2022/03/05 02:02:49;;;;;;;38.97;17.05;;;3.00;99.90;;;;;;5122948;28;20604;-86
2022/03/05 02:05:15;;;;;;;45.38;16.67;;;3.10;99.90;;;;;;5105902;28;20058;-87
2022/03/05 02:07:41;;;;;;;42.22;17.83;;;3.10;99.90;;;;;;5105414;28;20085;-85
2022/03/05 02:10:09;;;;;;;46.28;17.20;;;3.10;99.90;;;;;;5134467;28;20094;-88
2022/03/05 02:12:36;;;;;;;47.25;17.65;;;3.10;99.90;;;;;;5103847;28;20030;-86
2022/03/05 02:15:04;;;;;;;43.45;16.52;;;3.20;99.90;;;;;;5121561;28;20023;-86
2022/03/05 02:17:30;;;;;;;44.28;17.55;;;3.20;99.90;;;;;;5121691;28;20028;-88
2022/03/05 02:19:57;;;;;;;44.83;17.55;;;3.20;99.90;;;;;;5103969;28;20031;-86
2022/03/05 02:22:23;;;;;;;42.67;16.83;;;3.20;99.90;;;;;;5124084;28;20024;-87
2022/03/05 02:24:55;;;;;;;43.72;18.33;;;3.20;99.90;;;;;;5124933;28;20062;-88
2022/03/05 02:27:25;;;;;;;41.92;17.17;;;3.20;99.90;;;;;;5109532;28;20027;-89
2022/03/05 02:29:53;;;;;;;39.80;16.63;;;3.20;99.90;;;;;;5125931;28;20084;-85
2022/03/05 02:32:20;;;;;;;43.17;17.08;;;3.20;99.90;;;;;;5138764;28;20023;-84
2022/03/05 02:34:46;;;;;;;50.47;17.95;;;3.20;99.90;;;;;;5131080;28;20047;-87
2022/03/05 02:37:17;;;;;;;42.47;17.15;;;3.20;99.90;;;;;;5126536;28;20027;-88
2022/03/05 02:39:47;;;;;;;46.72;16.65;;;3.30;99.90;;;;;;5108833;28;20035;-89
2022/03/05 02:42:15;;;;;;;47.13;18.52;;;3.20;99.90;;;;;;5126964;28;20028;-87
2022/03/05 02:44:42;;;;;;;46.53;18.42;;;3.20;99.90;;;;;;5111002;28;20028;-86
2022/03/05 02:47:07;;;;;;;41.28;17.85;;;3.20;99.90;;;;;;5130877;28;20047;-86
2022/03/05 02:49:33;;;;;;;43.90;18.52;;;3.20;99.90;;;;;;5103048;28;20051;-86
2022/03/05 02:51:59;;;;;;;44.20;17.40;;;3.20;99.90;;;;;;5127710;28;20028;-87
2022/03/05 02:54:25;;;;;;;43.05;17.45;;;3.20;99.90;;;;;;5109176;28;20035;-86
2022/03/05 02:56:51;;;;;;;49.03;19.00;;;3.10;99.90;;;;;;5128954;28;20031;-86
2022/03/05 02:59:16;;;;;;;44.25;19.48;;;3.10;99.90;;;;;;5141756;28;20012;-85
2022/03/05 03:01:42;;;;;;;42.78;17.60;;;3.10;99.90;;;;;;5110688;28;20066;-86
2022/03/05 03:04:08;;;;;;;43.35;17.55;;;3.10;99.90;;;;;;5127714;28;20029;-87
2022/03/05 03:06:34;;;;;;;40.60;18.75;;;3.10;99.90;;;;;;5109949;28;20039;-86
2022/03/05 03:08:59;;;;;;;45.83;18.02;;;3.00;99.90;;;;;;5127870;28;20050;-87
2022/03/05 03:11:26;;;;;;;43.08;17.77;;;3.00;99.90;;;;;;5126640;28;20000;-86
2022/03/05 03:13:52;;;;;;;47.03;18.60;;;3.00;99.90;;;;;;5131174;28;20368;-87
2022/03/05 03:16:18;;;;;;;37.58;16.75;;;3.00;99.90;;;;;;5138306;28;20028;-85
2022/03/05 03:18:43;;;;;;;41.40;17.38;;;2.90;99.90;;;;;;5110530;28;20043;-87
2022/03/05 03:21:09;;;;;;;45.17;18.73;;;2.90;99.90;;;;;;5108063;28;20054;-88
2022/03/05 03:23:35;;;;;;;43.80;17.67;;;2.90;99.90;;;;;;5126520;28;20036;-85
2022/03/05 03:26:01;;;;;;;45.63;18.27;;;2.90;99.90;;;;;;5135797;28;20004;-87
2022/03/05 03:28:27;;;;;;;51.05;19.45;;;2.90;99.90;;;;;;5122417;28;20066;-85
2022/03/05 03:30:53;;;;;;;49.63;19.02;;;2.90;99.90;;;;;;5109151;28;20028;-85
2022/03/05 03:33:19;;;;;;;40.03;18.02;;;2.90;99.90;;;;;;5107771;28;20031;-88
2022/03/05 03:35:45;;;;;;;43.33;17.52;;;2.90;99.90;;;;;;5107883;28;20456;-87
2022/03/05 03:38:11;;;;;;;45.63;18.77;;;3.00;99.90;;;;;;5089859;28;20035;-86
2022/03/05 03:40:36;;;;;;;47.78;19.17;;;3.00;99.90;;;;;;5108251;28;20042;-86
2022/03/05 03:43:02;;;;;;;46.05;19.08;;;3.00;99.90;;;;;;5105187;28;20023;-85
2022/03/05 03:45:28;;;;;;;44.50;17.48;;;3.00;99.90;;;;;;5124182;28;20098;-86
2022/03/05 03:47:54;;;;;;;46.03;19.40;;;2.90;99.90;;;;;;5124298;28;20031;-87
2022/03/05 03:50:23;;;;;;;43.00;19.38;;;2.90;99.90;;;;;;5125665;28;20026;-87
2022/03/05 03:52:49;;;;;;;44.20;17.73;;;2.90;99.90;;;;;;5124816;28;20032;-87
2022/03/05 03:55:17;;;;;;;40.97;17.13;;;2.90;99.90;;;;;;5108575;28;20019;-87
2022/03/05 03:57:44;;;;;;;47.35;18.40;;;2.90;99.90;;;;;;5126098;28;20019;-88
2022/03/05 04:00:13;;;;;;;44.53;19.27;;;2.80;99.90;;;;;;5105691;22;20076;-85
2022/03/05 04:02:40;;;;;;;44.35;19.00;;;2.80;99.90;;;;;;5057324;28;20029;-87
2022/03/05 04:05:06;;;;;;;44.47;19.23;;;2.80;99.90;;;;;;5043061;28;20014;-86
2022/03/05 04:10:17;;;;;;;44.22;18.88;;;2.70;99.90;;;;;;5040797;28;20041;-87
2022/03/05 04:12:43;;;;;;;47.53;19.67;;;2.70;99.90;;;;;;5023523;28;20034;-88
2022/03/05 04:15:11;;;;;;;45.33;18.85;;;2.60;99.90;;;;;;5039889;28;20061;-88
2022/03/05 04:17:37;;;;;;;44.78;18.48;;;2.60;99.90;;;;;;5023639;28;20046;-88
2022/03/05 04:20:07;;;;;;;46.50;19.30;;;2.60;99.90;;;;;;5040166;28;20038;-89
2022/03/05 04:22:33;;;;;;;44.28;19.38;;;2.50;99.90;;;;;;5038940;28;20025;-86
2022/03/05 04:25:00;;;;;;;44.75;18.40;;;2.50;99.90;;;;;;5022715;28;20029;-87
2022/03/05 04:27:26;;;;;;;45.05;19.60;;;2.30;99.90;;;;;;5022835;28;20041;-89
2022/03/05 04:29:53;;;;;;;47.10;19.27;;;2.30;99.90;;;;;;5021944;28;20050;-88
2022/03/05 04:32:19;;;;;;;46.10;18.95;;;2.30;99.90;;;;;;5039361;28;20078;-89
2022/03/05 04:34:45;;;;;;;46.13;19.33;;;2.30;99.90;;;;;;5039212;28;20018;-88
2022/03/05 04:37:11;;;;;;;52.08;19.67;;;2.20;99.90;;;;;;5022487;28;20018;-88
2022/03/05 04:39:37;;;;;;;48.60;20.00;;;2.20;99.90;;;;;;5039616;28;20116;-89
2022/03/05 04:42:03;;;;;;;45.03;18.42;;;2.20;99.90;;;;;;5039537;28;20037;-88
2022/03/05 04:44:29;;;;;;;50.03;19.58;;;2.20;99.90;;;;;;5038851;28;20113;-88
2022/03/05 04:46:55;;;;;;;50.22;19.88;;;2.20;99.90;;;;;;5022515;28;20022;-88
2022/03/05 04:49:21;;;;;;;44.92;18.90;;;2.30;99.90;;;;;;5022440;28;20037;-86
2022/03/05 04:51:46;;;;;;;48.35;20.35;;;2.30;99.90;;;;;;5022952;28;20078;-88
2022/03/05 04:54:12;;;;;;;51.78;20.38;;;2.30;99.90;;;;;;5040087;28;20041;-89
2022/03/05 04:56:38;;;;;;;45.28;18.13;;;2.30;99.90;;;;;;5021820;28;20030;-85
2022/03/05 04:59:06;;;;;;;46.92;19.75;;;2.30;99.90;;;;;;5022195;28;20086;-88
2022/03/05 05:01:31;;;;;;;48.97;19.58;;;2.30;99.90;;;;;;5006629;28;20041;-89
2022/03/05 05:03:57;;;;;;;47.20;18.52;;;2.30;99.90;;;;;;5039726;28;20026;-88
2022/03/05 05:06:24;;;;;;;47.90;19.45;;;2.40;99.90;;;;;;5022570;28;20093;-84
2022/03/05 05:08:51;;;;;;;43.92;19.13;;;2.40;99.90;;;;;;5039344;28;20038;-88
2022/03/05 05:11:16;;;;;;;43.97;19.42;;;2.40;99.90;;;;;;5022735;28;20102;-89
2022/03/05 05:13:42;;;;;;;50.00;20.45;;;2.40;99.90;;;;;;5039772;28;20025;-90
2022/03/05 05:16:08;;;;;;;50.25;19.33;;;2.40;99.90;;;;;;5039737;28;20025;-88
2022/03/05 05:18:34;;;;;;;47.15;19.65;;;2.40;99.90;;;;;;5039191;28;20667;-89
2022/03/05 05:21:00;;;;;;;42.75;18.48;;;2.40;99.90;;;;;;5039326;28;20014;-88
2022/03/05 05:23:27;;;;;;;48.42;18.60;;;2.40;99.90;;;;;;5039051;28;20021;-87
2022/03/05 05:25:53;;;;;;;51.28;19.35;;;2.50;99.90;;;;;;5022239;28;20049;-88
2022/03/05 05:28:19;;;;;;;45.08;19.23;;;2.50;99.90;;;;;;5021758;28;20063;-88
2022/03/05 05:30:45;;;;;;;44.88;18.83;;;2.50;99.90;;;;;;5021343;28;20034;-88
2022/03/05 05:33:11;;;;;;;45.70;18.90;;;2.40;99.90;;;;;;5038377;28;20093;-87
2022/03/05 05:35:37;;;;;;;43.83;18.20;;;2.40;99.90;;;;;;5038518;28;20025;-90
2022/03/05 05:38:03;;;;;;;43.58;18.13;;;2.50;99.90;;;;;;5021819;28;20090;-90
2022/03/05 05:40:30;;;;;;;44.70;18.05;;;2.50;99.90;;;;;;5022012;28;20037;-90
2022/03/05 05:42:56;;;;;;;47.72;18.92;;;2.50;99.90;;;;;;5019414;28;20056;-90
2022/03/05 05:45:22;;;;;;;48.67;18.85;;;2.50;99.90;;;;;;5015897;28;20034;-89
2022/03/05 05:47:48;;;;;;;44.00;19.33;;;2.50;99.90;;;;;;5005488;28;20061;-88
2022/03/05 05:50:14;;;;;;;46.17;18.33;;;2.50;99.90;;;;;;4976862;28;20033;-88
2022/03/05 05:52:40;;;;;;;44.92;18.40;;;2.50;99.90;;;;;;4995990;28;20030;-88
2022/03/05 05:55:06;;;;;;;44.10;17.88;;;2.50;99.90;;;;;;5018364;28;20018;-90
2022/03/05 05:57:32;;;;;;;50.15;19.20;;;2.50;99.90;;;;;;5018606;28;20011;-90
2022/03/05 05:59:58;;;;;;;52.75;19.13;;;2.50;99.90;;;;;;5001150;28;20053;-90
2022/03/05 06:02:26;;;;;;;52.70;19.17;;;2.50;99.90;;;;;;4985902;28;20034;-88
2022/03/05 06:04:52;;;;;;;44.33;18.98;;;2.60;99.90;;;;;;5019122;28;20823;-89
2022/03/05 06:07:18;;;;;;;41.83;18.50;;;2.60;99.90;;;;;;5018863;28;20042;-91
2022/03/05 06:09:44;;;;;;;47.80;19.33;;;2.70;99.90;;;;;;5018619;28;20038;-87
2022/03/05 06:12:10;;;;;;;45.92;18.63;;;2.70;99.90;;;;;;5017231;28;20038;-88
2022/03/05 06:14:35;;;;;;;41.97;17.33;;;2.70;99.90;;;;;;5016873;28;20022;-84
2022/03/05 06:17:01;;;;;;;47.63;19.15;;;2.70;99.90;;;;;;5012122;28;20029;-88
2022/03/05 06:19:27;;;;;;;40.85;18.48;;;2.80;99.90;;;;;;5018277;28;20049;-83
2022/03/05 06:21:53;;;;;;;43.25;18.27;;;2.80;99.90;;;;;;5037445;28;20049;-85
2022/03/05 06:24:19;;;;;;;42.80;18.38;;;2.80;99.90;;;;;;5037227;28;20018;-85
2022/03/05 06:26:45;;;;;;;47.00;19.38;;;2.90;99.90;;;;;;5037914;28;20102;-83
2022/03/05 06:29:11;;;;;;;49.53;18.92;;;2.80;99.90;;;;;;5036187;28;20037;-86
2022/03/05 06:31:37;;;;;;;45.45;18.80;;;2.90;99.90;;;;;;5016832;28;20074;-88
2022/03/05 06:34:02;;;;;;;40.75;18.73;;;3.00;99.90;;;;;;5037967;28;20016;-86
2022/03/05 06:36:28;;;;;;;41.78;19.10;;;2.90;99.90;;;;;;5038011;28;20014;-86
2022/03/05 06:38:54;;;;;;;42.85;17.50;;;2.90;99.90;;;;;;5037606;28;20014;-87
2022/03/05 06:41:20;;;;;;;50.90;19.75;;;3.00;99.90;;;;;;5033930;28;20042;-85
2022/03/05 06:43:46;;;;;;;40.90;18.52;;;3.00;99.90;;;;;;5025144;28;20030;-88
2022/03/05 06:46:12;;;;;;;45.78;18.25;;;3.10;99.90;;;;;;5014277;28;20192;-86
2022/03/05 06:48:37;;;;;;;48.95;18.92;;;3.20;99.90;;;;;;5013780;28;20018;-88
2022/03/05 06:51:03;;;;;;;41.85;18.08;;;3.30;99.90;;;;;;5005745;28;20028;-88
2022/03/05 06:53:31;;;;;;;41.45;17.50;;;3.30;99.90;;;;;;4975833;28;20426;-88
2022/03/05 06:55:57;;;;;;;43.05;18.95;;;3.30;99.90;;;;;;4995530;28;20030;-87
2022/03/05 06:58:22;;;;;;;38.45;17.80;;;3.40;99.90;;;;;;5008518;28;20044;-89
2022/03/05 07:00:48;;;;;;;40.95;18.10;;;3.40;99.90;;;;;;5002806;28;20255;-84
2022/03/05 07:03:14;;;;;;;45.03;18.67;;;3.50;99.90;;;;;;5017579;28;20031;-88
2022/03/05 07:05:40;;;;;;;40.60;17.08;;;3.50;99.90;;;;;;4999589;28;20101;-88
2022/03/05 07:08:06;;;;;;;45.17;19.35;;;3.60;99.90;;;;;;5000106;28;20029;-86
2022/03/05 07:10:31;;;;;;;40.92;17.90;;;3.60;99.90;;;;;;4999879;28;20026;-87
2022/03/05 07:12:57;;;;;;;43.47;19.02;;;3.70;99.90;;;;;;5007672;28;20040;-86
2022/03/05 07:15:23;;;;;;;42.17;18.00;;;3.70;99.90;;;;;;4992657;28;20110;-84
2022/03/05 07:17:50;;;;;;;41.58;17.75;;;3.70;99.90;;;;;;5019431;28;20515;-86
2022/03/05 07:20:17;;;;;;;46.35;18.38;;;3.80;99.90;;;;;;5001161;28;20041;-86
2022/03/05 07:22:43;;;;;;;46.33;18.30;;;3.90;99.90;;;;;;5017889;28;20034;-88
2022/03/05 07:25:10;;;;;;;40.13;18.27;;;4.00;99.90;;;;;;5010801;28;20094;-88
2022/03/05 07:27:35;;;;;;;42.17;17.55;;;4.10;99.90;;;;;;4996711;28;20010;-84
2022/03/05 07:30:02;;;;;;;39.05;16.83;;;4.20;99.90;;;;;;4998754;28;20038;-87
2022/03/05 07:32:28;;;;;;;44.40;18.17;;;4.30;99.90;;;;;;5007338;28;20033;-88
2022/03/05 07:34:53;;;;;;;39.42;17.58;;;4.40;99.90;;;;;;4989850;28;20058;-86
2022/03/05 07:37:19;;;;;;;38.88;18.10;;;4.40;99.90;;;;;;5008585;28;20025;-89
2022/03/05 07:39:45;;;;;;;38.97;17.80;;;4.50;99.90;;;;;;5008937;28;20026;-88
2022/03/05 07:42:11;;;;;;;37.67;17.08;;;4.70;99.90;;;;;;5008377;28;20069;-89
2022/03/05 07:44:37;;;;;;;39.75;17.92;;;4.80;99.90;;;;;;5014088;28;20046;-89
2022/03/05 07:47:03;;;;;;;39.17;17.25;;;4.90;99.90;;;;;;5014132;28;20014;-87
2022/03/05 07:49:29;;;;;;;40.55;17.65;;;5.00;99.90;;;;;;5003910;28;20038;-86
2022/03/05 07:51:56;;;;;;;36.90;17.35;;;5.10;99.90;;;;;;5020252;28;20037;-86
2022/03/05 07:54:23;;;;;;;37.83;16.80;;;5.10;99.90;;;;;;5020248;28;20040;-86
2022/03/05 07:56:49;;;;;;;39.03;17.48;;;5.20;99.90;;;;;;5003937;28;20074;-87
2022/03/05 07:59:15;;;;;;;35.78;16.60;;;5.30;99.90;;;;;;5020218;28;20041;-86
2022/03/05 08:01:41;;;;;;;36.45;16.65;;;5.30;99.90;;;;;;5018092;28;20014;-84
2022/03/05 08:04:07;;;;;;;37.78;16.52;;;5.30;99.90;;;;;;5013091;28;20022;-86
2022/03/05 08:06:33;;;;;;;37.08;16.83;;;5.40;99.90;;;;;;5014024;28;20023;-87
2022/03/05 08:08:59;;;;;;;36.97;17.00;;;5.50;99.90;;;;;;5019183;28;20089;-88
2022/03/05 08:11:25;;;;;;;37.80;16.90;;;5.70;99.90;;;;;;5018617;28;20034;-87
2022/03/05 08:13:51;;;;;;;41.13;18.05;;;5.90;99.90;;;;;;5017944;28;20026;-88
2022/03/05 08:16:17;;;;;;;35.13;16.77;;;6.00;99.90;;;;;;4999733;28;20119;-87
2022/03/05 08:18:43;;;;;;;35.42;16.73;;;6.00;99.90;;;;;;5016317;28;20109;-89
2022/03/05 08:21:09;;;;;;;37.42;17.50;;;6.20;99.90;;;;;;4999941;28;20085;-86
2022/03/05 08:23:34;;;;;;;34.20;15.65;;;6.20;99.90;;;;;;4999642;28;20129;-88
2022/03/05 08:26:01;;;;;;;38.58;17.23;;;6.20;99.90;;;;;;4995725;28;20037;-89
2022/03/05 08:28:27;;;;;;;35.60;16.02;;;6.20;99.90;;;;;;4997444;28;20041;-87
2022/03/05 08:30:52;;;;;;;37.38;17.52;;;6.40;99.90;;;;;;4996719;28;20026;-88
2022/03/05 08:33:20;;;;;;;36.97;16.23;;;6.50;99.90;;;;;;5013379;28;20061;-87
2022/03/05 08:35:46;;;;;;;35.83;16.38;;;6.60;99.90;;;;;;5011661;28;20074;-86
2022/03/05 08:38:12;;;;;;;35.42;16.48;;;6.70;99.90;;;;;;5010893;28;20034;-89
2022/03/05 08:40:38;;;;;;;32.15;15.95;;;6.90;99.90;;;;;;4990206;28;20040;-87
2022/03/05 08:43:03;;;;;;;32.22;15.27;;;6.90;99.90;;;;;;4988517;28;20034;-88
2022/03/05 08:45:29;;;;;;;34.42;16.75;;;7.00;99.90;;;;;;4988556;28;20026;-90
2022/03/05 08:47:55;;;;;;;34.53;17.08;;;7.30;99.90;;;;;;4992701;28;20018;-87
2022/03/05 08:50:21;;;;;;;34.60;17.08;;;7.50;99.90;;;;;;5017073;28;20022;-88
2022/03/05 08:52:47;;;;;;;39.35;16.30;;;7.70;99.90;;;;;;5010221;28;20034;-89
2022/03/05 08:55:16;;;;;;;41.83;17.02;;;8.00;99.60;;;;;;5010097;28;20038;-89
2022/03/05 08:57:42;;;;;;;34.75;17.52;;;8.30;99.10;;;;;;4983976;28;20133;-87
2022/03/05 09:00:10;;;;;;;37.60;18.13;;;8.30;98.90;;;;;;4998721;28;20038;-87
2022/03/05 09:02:36;;;;;;;37.90;17.42;;;8.50;98.70;;;;;;5007981;28;20090;-88
2022/03/05 09:05:03;;;;;;;39.60;17.40;;;9.10;97.90;;;;;;4986086;28;20046;-88
2022/03/05 09:07:29;;;;;;;32.03;16.67;;;9.40;97.20;;;;;;5003947;28;20120;-87
2022/03/05 09:09:55;;;;;;;33.83;17.08;;;9.90;96.40;;;;;;5004987;28;20057;-89
2022/03/05 09:12:20;;;;;;;39.08;18.42;;;10.60;95.50;;;;;;4992211;28;20031;-87
2022/03/05 09:14:48;;;;;;;34.60;18.00;;;11.00;94.20;;;;;;4990207;28;20049;-87
2022/03/05 09:17:15;;;;;;;34.75;17.92;;;11.70;92.70;;;;;;4990346;28;20031;-88
2022/03/05 09:19:41;;;;;;;31.80;17.23;;;12.30;91.50;;;;;;5009489;28;20029;-88
2022/03/05 09:22:09;;;;;;;31.67;18.08;;;12.90;90.20;;;;;;5010749;28;20026;-86
2022/03/05 09:24:35;;;;;;;34.05;19.00;;;13.50;88.20;;;;;;5017313;28;20030;-86
2022/03/05 09:27:01;;;;;;;33.33;18.42;;;13.90;86.40;;;;;;5001315;28;20046;-87
2022/03/05 09:29:26;;;;;;;33.00;18.05;;;13.90;84.70;;;;;;5000896;28;20109;-87
2022/03/05 09:31:52;;;;;;;36.70;19.15;;;14.90;82.10;;;;;;5017643;28;20028;-88
2022/03/05 09:34:18;;;;;;;32.15;17.90;;;15.50;79.50;;;;;;5017234;28;20208;-87
2022/03/05 09:36:44;;;;;;;32.83;18.90;;;15.80;76.70;;;;;;5001503;28;20115;-87
2022/03/05 09:39:10;;;;;;;30.50;17.73;;;14.80;77.10;;;;;;5018260;28;20042;-86
2022/03/05 09:41:39;;;;;;;39.75;19.67;;;14.50;77.80;;;;;;5000438;28;20046;-87
2022/03/05 09:44:07;;;;;;;33.30;19.92;;;13.40;79.50;;;;;;4995273;28;20034;-90
2022/03/05 09:46:34;;;;;;;34.53;19.15;;;12.00;82.50;;;;;;4986586;28;20359;-88
2022/03/05 09:49:02;;;;;;;36.20;19.65;;;11.60;84.50;;;;;;4986321;28;20038;-87
2022/03/05 09:51:28;;;;;;;37.50;19.55;;;11.70;84.40;;;;;;5003170;28;20022;-87
2022/03/05 09:53:55;;;;;;;38.50;19.73;;;11.80;84.40;;;;;;4994300;28;20101;-88
2022/03/05 09:56:22;;;;;;;36.95;18.38;;;11.30;84.70;;;;;;5012844;28;20502;-88
2022/03/05 09:58:49;;;;;;;38.85;19.45;;;10.90;85.70;;;;;;5029360;23;20047;-88
2022/03/05 10:01:16;;;;;;;36.60;19.13;;;11.00;86.40;;;;;;5003869;28;20082;-89
2022/03/05 10:03:53;;;;;;;41.05;19.77;;;11.00;86.00;;;;;;5003729;28;20026;-88
2022/03/05 10:06:21;;;;;;;37.03;19.70;;;10.90;86.10;;;;;;5003382;28;20098;-87
2022/03/05 10:08:51;;;;;;;36.92;19.00;;;10.80;86.40;;;;;;5002582;28;20057;-90
2022/03/05 10:11:20;;;;;;;36.22;19.27;;;10.40;86.30;;;;;;5002805;28;20506;-89
2022/03/05 10:13:46;;;;;;;39.05;19.30;;;9.90;87.90;;;;;;4988601;28;20085;-87
2022/03/05 10:16:25;;;;;;;38.20;19.30;;;9.80;88.80;;;;;;5009175;28;20026;-85
2022/03/05 10:18:53;;;;;;;38.08;18.73;;;10.00;88.80;;;;;;5017663;28;20094;-86
2022/03/05 10:21:29;;;;;;;32.97;17.33;;;10.50;88.30;;;;;;5016562;28;20070;-91
2022/03/05 10:24:10;;;;;;;33.83;17.45;;;12.30;84.10;;;;;;5017213;28;20030;-92
2022/03/05 10:26:52;;;;;;;33.22;17.30;;;14.90;78.40;;;;;;5016856;28;20031;-88
2022/03/05 10:29:24;;;;;;;31.08;17.42;;;16.90;73.50;;;;;;4993239;28;20093;-87
2022/03/05 10:32:02;;;;;;;32.83;18.38;;;17.50;69.90;;;;;;5011110;28;20014;-88
2022/03/05 10:34:49;;;;;;;34.60;18.92;;;16.60;69.50;;;;;;5017729;28;20113;-90
2022/03/05 10:37:16;;;;;;;27.50;17.27;;;15.40;70.90;;;;;;5011140;28;20030;-92
2022/03/05 10:39:42;;;;;;;30.25;17.17;;;14.90;71.80;;;;;;5017591;28;20058;-90
2022/03/05 10:42:26;;;;;;;31.90;18.05;;;14.30;72.50;;;;;;5001089;28;20038;-92
2022/03/05 10:45:06;;;;;;;36.58;18.95;;;13.10;74.50;;;;;;5016781;28;20050;-88
2022/03/05 10:47:45;;;;;;;33.88;17.98;;;12.20;76.00;;;;;;5016634;28;20038;-86
2022/03/05 10:50:21;;;;;;;34.80;17.60;;;11.40;77.80;;;;;;5001096;28;20026;-88
2022/03/05 10:53:00;;;;;;;36.08;18.00;;;11.00;78.80;;;;;;5017413;28;20034;-89
2022/03/05 10:55:29;;;;;;;31.15;15.75;;;10.40;80.40;;;;;;4982614;28;20037;-88
2022/03/05 10:58:22;;;;;;;28.38;15.65;;;10.00;80.00;;;;;;5012457;28;20030;-89
2022/03/05 11:00:50;;;;;;;29.08;13.50;;;9.60;80.60;;;;;;5019127;28;20061;-88
2022/03/05 11:03:18;;;;;;;27.20;14.48;;;9.40;79.60;;;;;;4997064;28;20018;-87
2022/03/05 11:05:45;;;;;;;28.20;14.20;;;9.30;79.00;;;;;;5012044;28;20057;-87
2022/03/05 11:08:11;;;;;;;31.77;15.32;;;9.20;79.60;;;;;;4978331;28;20435;-88
2022/03/05 11:10:38;;;;;;;30.80;15.27;;;9.10;80.70;;;;;;5008380;28;20030;-87
2022/03/05 11:13:05;;;;;;;34.25;15.88;;;8.70;81.60;;;;;;5007368;28;20058;-88
2022/03/05 11:15:32;;;;;;;32.47;14.23;;;8.30;82.70;;;;;;5007677;28;20502;-88
2022/03/05 11:17:59;;;;;;;36.22;15.95;;;8.30;82.70;;;;;;5006648;28;20521;-87
2022/03/05 11:20:26;;;;;;;33.78;16.00;;;8.30;83.30;;;;;;5010228;28;20038;-87
2022/03/05 11:22:55;;;;;;;31.63;14.88;;;8.20;83.70;;;;;;5011742;28;20054;-88
2022/03/05 11:25:25;;;;;;;31.98;15.80;;;8.10;83.90;;;;;;5022614;28;20085;-87
2022/03/05 11:28:07;;;;;;;32.78;15.40;;;7.90;83.80;;;;;;4993769;28;20502;-88
2022/03/05 11:30:42;;;;;;;34.15;15.48;;;7.90;84.70;;;;;;5001977;28;20027;-91
2022/03/05 11:33:33;;;;;;;31.55;14.13;;;7.70;83.90;;;;;;5020706;28;20093;-92
2022/03/05 11:36:07;;;;;;;27.83;13.65;;;7.70;83.60;;;;;;5021307;28;20028;-91
2022/03/05 11:38:36;;;;;;;29.07;13.87;;;7.50;83.30;;;;;;5036388;28;20042;-91
2022/03/05 11:41:26;;;;;;;41.60;17.05;;;7.50;83.40;;;;;;5004290;28;20015;-88
2022/03/05 11:43:53;;;;;;;31.55;13.73;;;7.50;83.70;;;;;;5019549;28;20038;-89
2022/03/05 11:46:27;;;;;;;31.52;14.32;;;7.40;84.50;;;;;;5002873;28;20018;-90
2022/03/05 11:49:10;;;;;;;34.85;15.05;;;7.40;84.80;;;;;;4997813;28;20466;-89
2022/03/05 11:51:54;;;;;;;31.60;14.10;;;7.40;85.30;;;;;;5010088;28;20030;-88
2022/03/05 11:54:21;;;;;;;29.10;13.25;;;7.40;84.30;;;;;;5007051;28;20049;-87
2022/03/05 11:57:11;;;;;;;30.70;13.80;;;7.40;84.40;;;;;;4992654;28;20022;-88
2022/03/05 11:59:39;;;;;;;27.98;13.23;;;7.40;84.40;;;;;;4993729;28;20102;-89
2022/03/05 12:02:06;;;;;;;28.02;13.35;;;7.50;84.10;;;;;;5010296;28;20026;-89
2022/03/05 12:04:32;;;;;;;31.25;13.23;;;7.50;84.20;;;;;;5011845;28;20057;-87
2022/03/05 12:07:13;;;;;;;29.23;13.75;;;7.70;83.80;;;;;;5012885;28;20022;-88
2022/03/05 12:09:54;;;;;;;27.25;11.85;;;7.70;83.80;;;;;;4997286;28;20038;-89
2022/03/05 12:12:20;;;;;;;25.13;11.30;;;7.60;82.60;;;;;;5029830;28;20030;-88
2022/03/05 12:15:08;;;;;;;27.02;12.02;;;7.70;81.50;;;;;;5009124;28;20037;-88
2022/03/05 12:17:44;;;;;;;26.52;11.73;;;7.70;81.10;;;;;;5009667;28;20026;-86
2022/03/05 12:20:16;;;;;;;23.90;11.20;;;7.70;81.20;;;;;;5018304;28;20045;-89
2022/03/05 12:22:52;;;;;;;29.65;12.23;;;7.70;81.10;;;;;;4994357;28;20057;-88
2022/03/05 12:25:19;;;;;;;29.63;12.75;;;7.90;80.90;;;;;;4995323;28;20042;-87
2022/03/05 12:27:46;;;;;;;24.60;11.35;;;8.00;81.00;;;;;;5010522;28;20022;-88
2022/03/05 12:30:13;;;;;;;19.80;9.88;;;8.20;80.30;;;;;;5009158;28;20042;-87
2022/03/05 12:32:45;;;;;;;22.08;10.57;;;8.40;77.80;;;;;;5010633;28;20018;-89
2022/03/05 12:35:14;;;;;;;25.55;11.30;;;8.40;78.20;;;;;;4990986;28;20073;-88
2022/03/05 12:37:42;;;;;;;23.90;11.90;;;8.50;79.20;;;;;;5006207;28;20053;-88
2022/03/05 12:40:11;;;;;;;15.82;8.23;;;8.80;78.30;;;;;;5005396;28;20057;-89